createdAt,value
2023-04-22T21:09:48.395Z,50.80
2023-04-22T21:12:15.115Z,52.01
2023-04-22T21:14:43.455Z,51.59
2023-04-22T21:17:21.474Z,55.76
2023-04-22T21:19:49.878Z,58.77
2023-04-22T21:22:19.713Z,63.35
2023-04-22T21:24:47.618Z,61.06
2023-04-22T21:27:14.108Z,56.18
2023-04-22T21:29:40.560Z,54.65
2023-04-22T21:32:09.159Z,54.34
2023-04-22T21:34:37.150Z,53.95
2023-04-22T21:37:04.215Z,53.67
2023-04-22T21:39:30.688Z,54.12
2023-04-22T21:42:02.120Z,54.03
2023-04-22T21:44:28.487Z,55.71
2023-04-22T21:46:54.858Z,58.97
2023-04-22T21:49:21.238Z,55.77
2023-04-22T21:51:47.798Z,55.53
2023-04-22T21:54:14.167Z,55.93
2023-04-22T21:56:40.571Z,55.59
2023-04-22T21:59:07.073Z,56.15
2023-04-22T22:01:33.473Z,57.31
2023-04-22T22:04:00.312Z,56.36
2023-04-22T22:06:26.903Z,56.62
2023-04-22T22:08:53.425Z,60.19
2023-04-22T22:11:30.228Z,60.19
2023-04-22T22:13:58.186Z,57.68
2023-04-22T22:16:24.908Z,57.51
2023-04-22T22:18:51.721Z,59.74
2023-04-22T22:21:18.200Z,60.78
2023-04-22T22:23:44.584Z,61.22
2023-04-22T22:26:11.342Z,58.53
2023-04-22T22:28:37.986Z,59.60
2023-04-22T22:31:04.531Z,58.54
2023-04-22T22:33:30.987Z,58.72
2023-04-22T22:35:57.523Z,59.49
2023-04-22T22:38:23.923Z,59.69
2023-04-22T22:40:50.264Z,60.02
2023-04-22T22:43:16.742Z,59.59
2023-04-22T22:45:43.130Z,61.52
2023-04-22T22:48:09.744Z,69.54
2023-04-22T22:50:36.345Z,69.41
2023-04-22T22:53:02.808Z,67.31
2023-04-22T22:55:29.261Z,63.63
2023-04-22T22:57:55.771Z,63.23
2023-04-22T23:00:22.222Z,63.08
2023-04-22T23:02:49.001Z,62.32
2023-04-22T23:05:15.808Z,66.05
2023-04-22T23:07:42.240Z,64.02
2023-04-22T23:10:09.097Z,62.60
2023-04-22T23:12:35.489Z,62.11
2023-04-22T23:15:02.258Z,61.73
2023-04-22T23:17:28.704Z,62.54
2023-04-22T23:19:55.238Z,62.79
2023-04-22T23:22:22.249Z,64.25
2023-04-22T23:24:48.716Z,63.82
2023-04-22T23:27:15.385Z,63.36
2023-04-22T23:29:42.196Z,63.88
2023-04-22T23:32:10.049Z,63.14
2023-04-22T23:34:40.793Z,64.33
2023-04-22T23:37:09.367Z,63.50
2023-04-22T23:39:36.037Z,63.43
2023-04-22T23:42:02.414Z,64.08
2023-04-22T23:44:28.777Z,63.44
2023-04-22T23:46:55.204Z,64.20
2023-04-22T23:49:21.850Z,63.97
2023-04-22T23:51:48.679Z,64.83
2023-04-22T23:54:15.015Z,65.24
2023-04-22T23:56:41.833Z,64.27
2023-04-22T23:59:08.520Z,64.58
